Unionville, Louisiana
Current Conditions -  °F | °C
As of 12:55 PM on Sunday 23 Nov 2014 (Local Time) from KRSN Reporting Station
Overcast Overcast  
Wind Chill: 64°   Ceiling: 1600
Heat Index: 64°   Visibility: 10mi
Dew Point: 63°   Wind: 9mph
Humidity: 96%   Direction: 210°SSW
Pressure: 29.51"   Gusts: NA
Location:  32.6988°N, 92.6981°W
Report Text: KRSN 231855Z AUTO 21008KT 10SM SCT011 BKN016 OVC029 18/17 A2951 RMK AO2 P0012 T01790173
Loading
Personal Weather Stations






























Interactive Weather Map New forecast layout! Learn more

10-Day Weather Forecast

Advertisements
Track Severe Weather on mobile